Pgc Ikaros — C6TN6 — position and weather

sailwx.info

Track history (hours):
 
Tides and Currents Weather Stations Pressure Air Temp Water Temp Dewpoint Dewpoint Depression Visibility Wind Speed Wind Dir Waves Ship Positions

Pgc Ikaros

Last reported at 2018-Jan-31 20:59 UTC. Time now 2018-Feb-20 21:50 UTC.
Position N 25°39' W 079°33'.
Warning: this ship's position is 20 days out of date.

Length 228 m; draft 11.9 m.

Type: Tanker. MMSI: 311707000.

Date/timePositionNaut miles runAvg speedWind from/ knotsBaromVisibWave heightAir tempDewpointWater temp
2018-Jan-31 20:59N 25°39' W 079°33'612.3
2018-Jan-31 20:30N 25°45' W 079°32'811.9
2018-Jan-31 19:52N 25°53' W 079°31'411.9
2018-Jan-31 19:29N 25°57' W 079°30'612.2
2018-Jan-31 18:59N 26°03' W 079°30'612.2
2018-Jan-31 18:30N 26°08' W 079°26'713.0
2018-Jan-31 17:58N 26°13' W 079°21'  
2018-Jan-24 03:05N 25°41' W 079°29'114.6
2018-Jan-24 03:00N 25°40' W 079°30'714.7
2018-Jan-24 02:30N 25°33' W 079°30'  
Track history (hours):
 
Tides and Currents Weather Stations Pressure Air Temp Water Temp Dewpoint Dewpoint Depression Visibility Wind Speed Wind Dir Waves Ship Positions

Pgc Ikaros

Last reported at 2018-Jan-31 20:59 UTC. Time now 2018-Feb-20 21:50 UTC.
Position N 25°39' W 079°33'.
Warning: this ship's position is 20 days out of date.

Length 228 m; draft 11.9 m.

Type: Tanker. MMSI: 311707000.

Date/timePositionNaut miles runAvg speedWind from/ knotsBaromVisibWave heightAir tempDewpointWater temp
2018-Jan-31 20:59N 25°39' W 079°33'612.3
2018-Jan-31 20:30N 25°45' W 079°32'811.9
2018-Jan-31 19:52N 25°53' W 079°31'411.9
2018-Jan-31 19:29N 25°57' W 079°30'612.2
2018-Jan-31 18:59N 26°03' W 079°30'612.2
2018-Jan-31 18:30N 26°08' W 079°26'713.0
2018-Jan-31 17:58N 26°13' W 079°21'  
2018-Jan-24 03:05N 25°41' W 079°29'114.6
2018-Jan-24 03:00N 25°40' W 079°30'714.7
2018-Jan-24 02:30N 25°33' W 079°30'  

Dump ship's entire track history